Time;durP1;ratioP1;P1;durP2;ratioP2;P2;SDS_P1;SDS_P2;PMS_P1;PMS_P2;Temp;Humidity;BMP_temperature;BMP_pressure;BME280_temperature;BME280_humidity;BME280_pressure;Samples;Min_cycle;Max_cycle;Signal;HPM_P1;HPM_P2
2022/06/24 00:02:03;;;;;;;12.90;8.38;;;;;;;13.94;81.58;100479.22;5123536;28;20019;-75
2022/06/24 00:04:30;;;;;;;11.10;8.77;;;;;;;13.93;81.39;100487.94;5123642;28;20056;-75
2022/06/24 00:06:57;;;;;;;8.57;7.07;;;;;;;13.90;81.18;100485.41;5123591;28;20028;-76
2022/06/24 00:09:26;;;;;;;8.75;6.75;;;;;;;13.91;81.02;100487.13;5123399;28;20020;-75
2022/06/24 00:12:03;;;;;;;9.02;7.72;;;;;;;13.90;80.74;100486.25;5123478;28;20098;-75
2022/06/24 00:14:29;;;;;;;8.65;6.75;;;;;;;13.91;80.29;100481.91;5123516;28;20024;-74
2022/06/24 00:17:09;;;;;;;8.15;6.15;;;;;;;13.91;80.11;100480.16;5123334;28;20023;-74
2022/06/24 00:19:52;;;;;;;11.18;7.85;;;;;;;13.94;80.00;100471.38;5123400;28;20028;-75
2022/06/24 00:22:17;;;;;;;10.07;7.35;;;;;;;13.78;79.59;100450.84;5123730;28;20032;-75
2022/06/24 00:24:43;;;;;;;8.40;6.38;;;;;;;13.94;79.36;100469.66;5123357;28;20534;-75
2022/06/24 00:27:18;;;;;;;8.00;6.18;;;;;;;13.97;79.26;100471.31;5123359;28;20046;-74
2022/06/24 00:29:43;;;;;;;7.50;6.10;;;;;;;13.98;78.89;100463.47;5123413;28;20020;-75
2022/06/24 00:32:09;;;;;;;8.82;6.97;;;;;;;14.04;78.84;100472.06;5123379;28;20031;-75
2022/06/24 00:34:37;;;;;;;8.73;7.10;;;;;;;14.06;78.42;100460.69;5123306;28;20023;-75
2022/06/24 00:37:26;;;;;;;9.00;7.05;;;;;;;14.06;78.79;100460.69;5123577;28;20039;-74
2022/06/24 00:39:57;;;;;;;9.68;8.25;;;;;;;14.05;79.12;100456.34;5127326;28;20027;-75
2022/06/24 00:42:24;;;;;;;12.63;7.93;;;;;;;14.02;79.35;100461.66;5108874;28;20019;-75
2022/06/24 00:45:02;;;;;;;11.80;8.70;;;;;;;13.99;79.80;100461.72;5127091;28;20028;-75
2022/06/24 00:47:28;;;;;;;9.60;7.13;;;;;;;13.99;79.88;100459.09;5108815;28;20026;-75
2022/06/24 00:49:56;;;;;;;7.90;7.05;;;;;;;13.99;79.82;100452.13;5127183;28;20019;-75
2022/06/24 00:52:22;;;;;;;8.07;6.18;;;;;;;14.03;79.48;100457.25;5126769;28;20044;-75
2022/06/24 00:54:48;;;;;;;8.95;7.28;;;;;;;14.02;79.66;100451.22;5126719;28;20094;-74
2022/06/24 00:57:14;;;;;;;8.00;5.85;;;;;;;14.01;79.48;100454.69;5126596;28;20024;-75
2022/06/24 00:59:40;;;;;;;7.78;6.40;;;;;;;14.04;79.00;100454.63;5126071;28;20323;-74
2022/06/24 01:02:06;;;;;;;7.20;6.13;;;;;;;14.03;78.51;100445.09;5108244;28;20423;-74
2022/06/24 01:04:33;;;;;;;6.65;5.15;;;;;;;14.08;77.98;100452.81;5126840;28;20035;-74
2022/06/24 01:06:59;;;;;;;8.27;6.35;;;;;;;14.08;77.80;100458.03;5126853;28;20352;-74
2022/06/24 01:09:24;;;;;;;8.38;6.07;;;;;;;14.02;77.66;100460.78;5126691;28;20023;-74
2022/06/24 01:11:49;;;;;;;7.32;5.35;;;;;;;14.04;77.75;100459.00;5126590;28;20020;-74
2022/06/24 01:14:15;;;;;;;6.85;4.85;;;;;;;14.05;76.81;100443.31;5108110;28;20027;-73
2022/06/24 01:16:41;;;;;;;5.57;4.15;;;;;;;14.17;75.91;100451.75;5126202;28;20031;-74
2022/06/24 01:19:09;;;;;;;7.30;5.20;;;;;;;14.24;75.13;100450.72;5126631;28;20083;-74
2022/06/24 01:21:35;;;;;;;5.15;4.35;;;;;;;14.24;74.62;100442.88;5126539;28;20020;-74
2022/06/24 01:24:18;;;;;;;5.20;4.43;;;;;;;14.36;73.91;100450.41;5126428;28;20023;-74
2022/06/24 01:26:48;;;;;;;5.15;4.18;;;;;;;14.37;73.18;100449.53;5126232;28;20027;-73
2022/06/24 01:29:15;;;;;;;5.10;4.03;;;;;;;14.46;72.25;100452.81;5126275;28;20022;-72
2022/06/24 01:31:42;;;;;;;4.13;3.47;;;;;;;14.47;71.20;100444.94;5125948;28;20020;-73
2022/06/24 01:34:08;;;;;;;4.55;3.45;;;;;;;14.52;70.60;100449.22;5126197;28;20037;-72
2022/06/24 01:36:34;;;;;;;4.45;3.30;;;;;;;14.61;69.43;100449.84;5126247;28;20030;-72
2022/06/24 01:39:00;;;;;;;4.30;3.22;;;;;;;14.65;68.48;100441.94;5125949;28;20051;-73
2022/06/24 01:41:25;;;;;;;8.40;3.33;;;;;;;14.69;68.17;100452.28;5126019;28;20023;-73
2022/06/24 01:43:50;;;;;;;4.97;3.30;;;;;;;14.69;67.55;100449.66;5125772;28;20023;-73
2022/06/24 01:46:16;;;;;;;4.18;3.00;;;;;;;14.72;67.15;100456.53;5125764;28;20030;-73
2022/06/24 01:48:41;;;;;;;4.82;3.47;;;;;;;14.76;66.68;100458.19;5107396;28;20500;-73
2022/06/24 01:51:09;;;;;;;3.90;3.22;;;;;;;14.79;66.28;100449.41;5125564;28;20039;-73
2022/06/24 01:53:35;;;;;;;3.55;3.00;;;;;;;14.81;65.84;100455.50;5126028;28;20020;-73
2022/06/24 01:56:00;;;;;;;3.53;2.65;;;;;;;14.82;65.14;100455.47;5107349;28;20019;-72
2022/06/24 01:58:25;;;;;;;3.47;2.50;;;;;;;14.87;64.39;100452.72;5125538;28;20062;-73
2022/06/24 02:00:51;;;;;;;4.28;3.50;;;;;;;14.93;63.98;100460.41;5125512;28;20030;-72
2022/06/24 02:03:16;;;;;;;3.97;2.67;;;;;;;14.98;63.48;100455.06;5125565;28;20027;-74
2022/06/24 02:05:43;;;;;;;4.57;2.60;;;;;;;15.04;62.62;100451.41;5125688;28;20012;-72
2022/06/24 02:08:08;;;;;;;3.53;2.38;;;;;;;15.09;61.95;100450.41;5125560;28;20087;-73
2022/06/24 02:13:29;;;;;;;2.80;2.42;;;;;;;15.13;61.84;100447.72;5125191;28;20035;-72
2022/06/24 02:16:00;;;;;;;5.50;3.22;;;;;;;15.05;62.41;100448.75;5125125;28;20047;-73
2022/06/24 02:18:28;;;;;;;3.92;3.13;;;;;;;14.94;62.91;100446.44;5125294;28;20038;-73
2022/06/24 02:20:54;;;;;;;5.38;3.10;;;;;;;14.81;63.70;100445.06;5140932;27;20019;-73
2022/06/24 02:23:20;;;;;;;4.22;3.53;;;;;;;14.69;64.00;100444.44;5125305;28;20035;-72
2022/06/24 02:25:47;;;;;;;3.97;3.10;;;;;;;14.68;64.22;100441.84;5125219;28;20030;-72
2022/06/24 02:28:13;;;;;;;3.85;3.00;;;;;;;14.71;64.04;100447.00;5125123;28;20329;-72
2022/06/24 02:30:39;;;;;;;8.93;3.47;;;;;;;14.71;64.25;100436.56;5124724;28;20081;-73
2022/06/24 02:33:06;;;;;;;4.13;3.72;;;;;;;14.69;64.24;100447.03;5125075;28;20126;-73
2022/06/24 02:35:31;;;;;;;3.88;3.20;;;;;;;14.66;64.46;100439.28;5124994;28;20111;-74
2022/06/24 02:37:56;;;;;;;3.88;3.00;;;;;;;14.68;64.82;100445.31;5124813;28;20457;-73
2022/06/24 02:43:11;;;;;;;5.10;3.63;;;;;;;14.66;65.13;100448.88;5124717;28;20065;-74
2022/06/24 02:45:36;;;;;;;4.45;3.53;;;;;;;14.61;65.42;100448.97;5124618;28;20024;-74
2022/06/24 02:48:03;;;;;;;3.65;3.03;;;;;;;14.57;65.77;100440.34;5124885;28;20015;-73
2022/06/24 02:50:29;;;;;;;4.63;3.58;;;;;;;14.56;66.09;100432.56;5106135;28;20425;-73
2022/06/24 02:52:54;;;;;;;4.38;3.97;;;;;;;14.55;66.18;100441.28;5124632;28;20023;-73
2022/06/24 02:55:19;;;;;;;6.05;3.58;;;;;;;14.56;66.46;100446.47;5124745;28;20051;-73
2022/06/24 02:57:45;;;;;;;6.30;3.70;;;;;;;14.54;67.16;100440.44;5124548;28;20023;-73
2022/06/24 03:00:10;;;;;;;4.68;3.95;;;;;;;14.54;67.22;100442.16;5123810;28;20027;-72
2022/06/24 03:02:36;;;;;;;4.72;4.13;;;;;;;14.53;67.14;100443.94;5124483;28;20073;-73
2022/06/24 03:05:01;;;;;;;6.22;4.13;;;;;;;14.46;67.51;100437.13;5124401;28;20490;-73
2022/06/24 03:07:26;;;;;;;7.03;3.88;;;;;;;14.50;68.00;100439.63;5124403;28;20031;-73
2022/06/24 03:09:52;;;;;;;5.10;3.63;;;;;;;14.60;68.51;100447.28;5124112;28;20019;-74
2022/06/24 03:12:17;;;;;;;4.95;3.83;;;;;;;14.71;68.67;100432.16;5124094;28;20050;-73
2022/06/24 03:14:42;;;;;;;5.13;3.90;;;;;;;14.92;68.64;100445.59;5124034;28;20045;-73
2022/06/24 03:17:08;;;;;;;4.40;3.60;;;;;;;15.12;68.59;100431.16;5123941;28;20023;-74
2022/06/24 03:19:33;;;;;;;4.45;3.92;;;;;;;15.30;68.24;100428.94;5124332;28;20083;-72
2022/06/24 03:21:58;;;;;;;6.32;4.22;;;;;;;15.58;67.91;100434.25;5124028;28;20023;-73
2022/06/24 03:24:24;;;;;;;5.40;4.10;;;;;;;15.86;67.00;100433.41;5124002;28;20027;-75
2022/06/24 03:26:49;;;;;;;6.45;3.58;;;;;;;16.12;66.43;100427.47;5123948;28;20098;-74
2022/06/24 03:29:14;;;;;;;5.80;3.65;;;;;;;16.35;65.42;100427.59;5123882;28;20032;-74
2022/06/24 03:31:40;;;;;;;5.40;3.42;;;;;;;16.48;64.99;100429.81;5123825;28;20030;-74
2022/06/24 03:34:05;;;;;;;4.57;3.72;;;;;;;16.62;64.27;100428.47;5124103;28;20016;-74
2022/06/24 03:36:30;;;;;;;4.10;3.65;;;;;;;16.69;63.80;100432.63;5124064;28;20119;-75
2022/06/24 03:38:56;;;;;;;4.90;3.75;;;;;;;16.78;63.60;100434.94;5123684;28;20095;-74
2022/06/24 03:41:21;;;;;;;5.28;3.80;;;;;;;16.84;63.39;100432.09;5123977;28;20692;-73
2022/06/24 03:43:46;;;;;;;5.38;3.83;;;;;;;16.93;63.11;100427.47;5123677;28;20027;-74
2022/06/24 03:46:12;;;;;;;4.43;3.58;;;;;;;17.03;62.96;100426.22;5123658;28;20064;-72
2022/06/24 03:48:37;;;;;;;5.60;3.35;;;;;;;17.20;63.16;100427.41;5123800;28;20049;-73
2022/06/24 03:51:02;;;;;;;4.78;3.50;;;;;;;17.44;62.69;100420.41;5123617;28;20047;-73
2022/06/24 03:53:31;;;;;;;4.10;3.40;;;;;;;17.62;62.02;100425.03;5123585;28;20458;-72
2022/06/24 03:55:56;;;;;;;5.25;3.58;;;;;;;17.69;61.08;100422.13;5124002;28;20027;-72
2022/06/24 03:58:21;;;;;;;4.30;3.85;;;;;;;17.75;60.60;100428.06;5105402;28;20096;-73
2022/06/24 04:00:47;;;;;;;4.45;4.00;;;;;;;17.82;60.25;100429.53;5123678;28;20095;-71
2022/06/24 04:03:12;;;;;;;4.18;3.60;;;;;;;17.93;60.19;100415.97;5123951;28;20015;-72
2022/06/24 04:05:37;;;;;;;3.92;3.47;;;;;;;18.16;59.45;100422.13;5123650;28;20026;-71
2022/06/24 04:08:03;;;;;;;5.72;4.00;;;;;;;18.28;59.05;100415.50;5123793;28;20058;-71
2022/06/24 04:10:29;;;;;;;3.83;2.90;;;;;;;18.45;59.31;100420.09;5123660;28;20463;-72
2022/06/24 04:12:54;;;;;;;4.72;3.55;;;;;;;18.69;58.04;100428.69;5107027;28;20122;-72
2022/06/24 04:15:20;;;;;;;4.72;3.35;;;;;;;18.77;56.86;100428.38;5109045;28;20459;-72
2022/06/24 04:17:48;;;;;;;3.42;3.03;;;;;;;18.80;57.11;100420.34;5128133;28;20045;-73
2022/06/24 04:20:18;;;;;;;4.78;3.15;;;;;;;18.98;56.67;100428.38;5127490;28;20012;-73
2022/06/24 04:22:44;;;;;;;2.95;2.60;;;;;;;19.01;56.05;100430.88;5127734;28;20151;-72
2022/06/24 04:25:11;;;;;;;4.38;3.28;;;;;;;19.14;55.69;100433.00;5127510;28;20083;-71
2022/06/24 04:27:37;;;;;;;5.80;3.50;;;;;;;19.40;55.46;100437.09;5127572;28;20131;-71
2022/06/24 04:30:05;;;;;;;3.50;3.20;;;;;;;19.76;55.02;100429.38;5127534;28;20484;-71
2022/06/24 04:32:30;;;;;;;4.13;3.17;;;;;;;20.12;54.10;100438.25;5127188;28;20020;-71
2022/06/24 04:34:56;;;;;;;3.60;3.00;;;;;;;20.43;53.90;100447.31;5143123;27;20045;-72
2022/06/24 04:37:21;;;;;;;3.50;2.85;;;;;;;20.65;52.73;100440.94;5127348;28;20034;-71
2022/06/24 04:39:47;;;;;;;3.65;3.05;;;;;;;20.86;52.58;100446.06;5127164;28;20102;-71
2022/06/24 04:42:12;;;;;;;3.60;3.15;;;;;;;21.25;51.90;100434.38;5127247;28;20118;-71
2022/06/24 04:44:38;;;;;;;3.25;2.83;;;;;;;21.60;50.93;100437.88;5127283;28;20039;-72
2022/06/24 04:47:04;;;;;;;3.50;3.10;;;;;;;21.83;49.66;100433.97;5127185;28;20032;-71
2022/06/24 04:49:29;;;;;;;5.90;2.92;;;;;;;21.88;49.50;100444.28;5127239;28;20050;-71
2022/06/24 04:51:54;;;;;;;4.72;2.75;;;;;;;21.84;48.96;100434.84;5126873;28;20092;-72
2022/06/24 04:54:20;;;;;;;3.92;2.78;;;;;;;21.82;49.37;100439.34;5108703;28;20030;-74
2022/06/24 04:56:46;;;;;;;3.00;2.70;;;;;;;21.83;49.25;100443.69;5127081;28;20079;-73
2022/06/24 04:59:11;;;;;;;3.20;2.90;;;;;;;21.87;48.54;100432.03;5126955;28;20027;-74
2022/06/24 05:01:37;;;;;;;3.78;3.03;;;;;;;21.98;48.72;100426.97;5126625;28;20043;-72
2022/06/24 05:04:03;;;;;;;3.10;2.80;;;;;;;22.17;48.02;100432.06;5126844;28;20468;-72
2022/06/24 05:06:28;;;;;;;3.20;2.45;;;;;;;22.08;47.21;100442.34;5126753;28;20023;-71
2022/06/24 05:08:54;;;;;;;3.95;3.10;;;;;;;21.91;47.92;100430.91;5126723;28;20023;-71
2022/06/24 05:11:19;;;;;;;3.20;2.53;;;;;;;21.97;48.15;100442.91;5126614;28;20344;-71
2022/06/24 05:13:44;;;;;;;3.47;2.67;;;;;;;22.06;47.35;100442.38;5126347;28;20020;-71
2022/06/24 05:16:10;;;;;;;3.60;3.13;;;;;;;22.03;47.46;100445.22;5126635;28;20414;-71
2022/06/24 05:18:35;;;;;;;2.70;2.38;;;;;;;22.32;47.67;100433.94;5126702;28;20027;-72
2022/06/24 05:21:02;;;;;;;4.35;2.78;;;;;;;22.49;46.49;100441.72;5126507;28;20022;-71
2022/06/24 05:23:28;;;;;;;3.88;2.85;;;;;;;22.54;46.61;100436.16;5126198;28;20031;-70
2022/06/24 05:25:53;;;;;;;2.92;2.33;;;;;;;22.64;45.64;100433.84;5126672;28;20031;-71
2022/06/24 05:28:19;;;;;;;4.63;2.80;;;;;;;22.75;45.80;100444.66;5126340;28;20128;-71
2022/06/24 05:30:44;;;;;;;3.47;3.17;;;;;;;22.78;45.44;100439.19;5126390;28;20015;-71
2022/06/24 05:33:09;;;;;;;3.13;2.60;;;;;;;22.85;45.29;100437.03;5126371;28;20490;-64
2022/06/24 05:35:35;;;;;;;3.40;2.47;;;;;;;23.08;44.98;100439.22;5107773;28;20020;-64
2022/06/24 05:38:00;;;;;;;4.30;2.60;;;;;;;23.30;44.75;100441.41;5126294;28;20020;-65
2022/06/24 05:40:25;;;;;;;3.65;2.70;;;;;;;23.63;44.04;100432.31;5126049;28;20565;-70
2022/06/24 05:42:52;;;;;;;4.50;2.55;;;;;;;24.04;43.76;100440.38;5125899;28;20022;-63
2022/06/24 05:45:17;;;;;;;4.90;2.28;;;;;;;24.32;42.38;100438.56;5126263;28;20016;-63
2022/06/24 05:47:43;;;;;;;4.80;2.90;;;;;;;24.33;41.74;100439.44;5125829;28;20370;-61
2022/06/24 05:50:09;;;;;;;4.15;2.83;;;;;;;24.57;43.02;100433.44;5125707;28;20032;-66
2022/06/24 05:55:18;;;;;;;2.92;2.63;;;;;;;25.23;40.78;100433.38;5125765;28;20049;-62
2022/06/24 05:57:43;;;;;;;2.90;2.08;;;;;;;25.43;40.63;100439.06;5125880;28;20023;-64
2022/06/24 06:00:09;;;;;;;6.45;2.72;;;;;;;25.65;39.34;100423.44;5125790;28;20030;-69
2022/06/24 06:02:35;;;;;;;2.60;2.08;;;;;;;25.92;39.07;100423.25;5125628;28;20027;-70
2022/06/24 06:05:00;;;;;;;3.22;2.20;;;;;;;26.32;37.97;100423.91;5125500;28;20026;-67
2022/06/24 06:07:26;;;;;;;2.83;2.25;;;;;;;26.57;36.66;100427.38;5125797;28;20024;-67
2022/06/24 06:09:51;;;;;;;2.78;2.25;;;;;;;26.18;36.57;100425.75;5125336;28;20420;-61
2022/06/24 06:12:17;;;;;;;2.78;2.10;;;;;;;25.71;37.04;100430.97;5125228;28;20020;-62
2022/06/24 06:14:42;;;;;;;3.08;2.05;;;;;;;25.56;37.07;100422.28;5125365;28;20412;-62
2022/06/24 06:17:08;;;;;;;2.60;2.00;;;;;;;25.39;38.07;100426.97;5125002;28;20028;-61
2022/06/24 06:19:34;;;;;;;2.60;1.90;;;;;;;25.44;37.79;100416.00;5125437;28;20026;-62
2022/06/24 06:22:03;;;;;;;2.83;2.08;;;;;;;25.41;36.70;100417.09;5125204;28;20011;-61
2022/06/24 06:24:30;;;;;;;2.40;1.70;;;;;;;25.47;37.24;100413.13;5125472;28;20023;-66
2022/06/24 06:26:57;;;;;;;2.63;1.77;;;;;;;25.46;36.82;100412.28;5125279;28;20024;-64
2022/06/24 06:29:22;;;;;;;2.00;1.60;;;;;;;25.40;35.80;100418.03;5124936;28;20062;-67
2022/06/24 06:31:48;;;;;;;2.20;1.60;;;;;;;24.71;36.50;100414.75;5124430;28;20399;-67
2022/06/24 06:34:14;;;;;;;1.90;1.60;;;;;;;24.17;37.90;100416.56;5125034;28;20030;-67
2022/06/24 06:36:39;;;;;;;3.38;1.77;;;;;;;23.86;38.26;100403.50;5124371;28;20032;-68
2022/06/24 06:39:04;;;;;;;2.67;1.70;;;;;;;23.69;38.76;100407.22;5124965;28;20030;-67
2022/06/24 06:41:30;;;;;;;2.15;1.60;;;;;;;23.52;38.77;100403.00;5124968;28;20011;-65
2022/06/24 06:43:55;;;;;;;1.92;1.60;;;;;;;23.50;39.45;100405.75;5124473;28;20102;-66
2022/06/24 06:46:21;;;;;;;1.60;1.23;;;;;;;23.72;39.22;100401.72;5124752;28;20452;-66
2022/06/24 06:48:46;;;;;;;2.10;1.50;;;;;;;23.88;38.26;100392.78;5123996;28;20053;-67
2022/06/24 06:51:11;;;;;;;1.48;1.17;;;;;;;23.87;37.47;100397.25;5124525;28;20082;-68
2022/06/24 06:53:37;;;;;;;1.58;0.88;;;;;;;23.84;37.08;100397.44;5124950;28;20072;-66
2022/06/24 06:56:02;;;;;;;1.67;1.27;;;;;;;23.74;36.83;100391.88;5125218;28;20049;-67
2022/06/24 06:58:28;;;;;;;2.30;1.30;;;;;;;23.91;37.95;100392.59;5124802;28;20034;-69
2022/06/24 07:00:53;;;;;;;1.63;1.20;;;;;;;24.10;36.38;100389.59;5124674;28;20012;-67
2022/06/24 07:03:19;;;;;;;1.38;1.20;;;;;;;24.16;37.81;100388.34;5124869;28;20019;-67
2022/06/24 07:05:44;;;;;;;1.10;0.90;;;;;;;24.75;36.25;100386.19;5124746;28;20023;-66
2022/06/24 07:08:14;;;;;;;1.73;1.00;;;;;;;24.83;35.45;100385.66;5124689;28;20020;-66
2022/06/24 07:10:40;;;;;;;1.77;1.15;;;;;;;24.76;35.92;100383.44;5124600;28;20193;-66
2022/06/24 07:13:06;;;;;;;1.52;1.10;;;;;;;24.90;35.64;100387.00;5124395;28;20034;-66
2022/06/24 07:15:31;;;;;;;1.23;0.88;;;;;;;25.17;34.48;100386.00;5124301;28;20019;-66
2022/06/24 07:17:56;;;;;;;1.23;0.88;;;;;;;25.07;34.41;100383.13;5124663;28;20028;-66
2022/06/24 07:20:22;;;;;;;2.33;1.42;;;;;;;24.87;35.29;100382.69;5124365;28;20051;-66
2022/06/24 07:22:47;;;;;;;1.30;0.85;;;;;;;24.98;35.43;100378.47;5124742;28;20016;-67
2022/06/24 07:25:12;;;;;;;1.40;0.90;;;;;;;25.24;35.42;100368.66;5124430;28;20515;-66
2022/06/24 07:27:38;;;;;;;1.73;1.33;;;;;;;25.53;35.78;100364.03;5124386;28;20020;-67
2022/06/24 07:30:04;;;;;;;1.50;1.10;;;;;;;26.02;35.08;100364.91;5124310;28;20480;-67
2022/06/24 07:32:30;;;;;;;1.52;1.20;;;;;;;26.44;34.18;100358.28;5124101;28;20040;-67
2022/06/24 07:34:55;;;;;;;2.10;1.10;;;;;;;26.37;33.40;100357.91;5124466;28;20035;-67
2022/06/24 07:37:20;;;;;;;1.60;1.20;;;;;;;26.00;34.23;100358.84;5124339;28;20530;-67
2022/06/24 07:39:46;;;;;;;1.90;1.17;;;;;;;26.06;35.29;100362.84;5124261;28;20027;-67
2022/06/24 07:42:11;;;;;;;1.67;1.05;;;;;;;26.26;34.54;100353.38;5124313;28;20016;-67
2022/06/24 07:44:40;;;;;;;2.25;1.35;;;;;;;26.29;34.62;100352.28;5124251;28;20548;-66
2022/06/24 07:47:06;;;;;;;2.08;1.40;;;;;;;26.27;34.75;100355.06;5123852;28;20080;-66
2022/06/24 07:49:31;;;;;;;3.40;1.50;;;;;;;26.57;34.56;100363.47;5124198;28;20027;-67
2022/06/24 07:51:57;;;;;;;2.25;1.30;;;;;;;26.57;34.50;100359.00;5123726;28;20199;-67
2022/06/24 07:54:24;;;;;;;6.60;1.50;;;;;;;26.46;34.79;100351.88;5124024;28;20393;-66
2022/06/24 07:56:58;;;;;;;2.40;1.23;;;;;;;26.37;35.14;100347.25;5124205;28;20057;-66
2022/06/24 07:59:29;;;;;;;2.00;1.40;;;;;;;26.49;34.90;100350.78;5123995;28;20083;-67
2022/06/24 08:01:56;;;;;;;1.57;1.30;;;;;;;26.64;35.47;100354.06;5123772;28;20019;-68
2022/06/24 08:04:24;;;;;;;4.25;1.40;;;;;;;26.76;35.31;100351.41;5123808;28;20022;-67
2022/06/24 08:06:50;;;;;;;3.72;1.52;;;;;;;26.79;34.95;100346.69;5123997;28;20054;-67
2022/06/24 08:09:17;;;;;;;3.40;2.30;;;;;;;26.89;35.09;100337.97;5123911;28;20043;-67
2022/06/24 08:11:43;;;;;;;2.10;1.60;;;;;;;27.07;35.14;100349.88;5123829;28;20024;-67
2022/06/24 08:14:08;;;;;;;2.22;1.70;;;;;;;27.16;34.97;100348.28;5123702;28;20019;-67
2022/06/24 08:16:34;;;;;;;1.95;1.58;;;;;;;27.37;34.97;100344.00;5123755;28;20418;-67
2022/06/24 08:19:00;;;;;;;1.83;1.55;;;;;;;27.32;34.89;100347.03;5123959;28;20019;-70
2022/06/24 08:21:25;;;;;;;2.97;1.38;;;;;;;27.49;34.50;100342.16;5123909;28;20026;-68
2022/06/24 08:23:51;;;;;;;6.10;1.70;;;;;;;27.47;34.41;100350.28;5123798;28;20027;-68
2022/06/24 08:26:17;;;;;;;2.75;1.60;;;;;;;27.54;34.51;100346.13;5123748;28;20027;-68
2022/06/24 08:28:43;;;;;;;3.28;2.10;;;;;;;27.75;34.90;100345.38;5123703;28;20020;-68
2022/06/24 08:31:09;;;;;;;2.85;1.90;;;;;;;28.53;34.92;100349.59;5123342;28;20406;-69
2022/06/24 08:33:34;;;;;;;4.80;1.70;;;;;;;29.65;33.26;100336.34;5123612;28;20034;-68
2022/06/24 08:36:00;;;;;;;2.90;2.17;;;;;;;30.10;31.97;100334.06;5123606;28;20058;-67
2022/06/24 08:38:26;;;;;;;4.55;2.08;;;;;;;30.06;31.03;100327.31;5123657;28;20088;-68
2022/06/24 08:40:54;;;;;;;2.20;1.60;;;;;;;30.08;31.34;100328.03;5123597;28;20019;-67
2022/06/24 08:43:22;;;;;;;3.58;2.00;;;;;;;30.05;30.97;100320.25;5123450;28;20030;-67
2022/06/24 08:45:49;;;;;;;2.25;1.58;;;;;;;29.68;30.88;100320.00;5123408;28;20019;-67
2022/06/24 08:48:15;;;;;;;1.80;1.52;;;;;;;29.80;31.66;100325.22;5123501;28;20494;-68
2022/06/24 08:50:40;;;;;;;3.20;1.73;;;;;;;29.91;31.03;100325.09;5123202;28;20047;-67
2022/06/24 08:53:08;;;;;;;3.15;1.67;;;;;;;29.80;31.76;100325.22;5123550;28;20032;-67
2022/06/24 08:55:36;;;;;;;2.65;1.80;;;;;;;29.90;31.28;100323.41;5123654;28;20042;-67
2022/06/24 08:58:09;;;;;;;2.38;1.52;;;;;;;30.28;31.71;100328.00;5123919;28;20386;-67
2022/06/24 09:00:36;;;;;;;3.28;1.52;;;;;;;30.54;30.48;100320.16;5127065;28;20094;-66
2022/06/24 09:03:02;;;;;;;3.65;1.58;;;;;;;30.56;30.66;100328.09;5127165;28;20020;-67
2022/06/24 09:05:28;;;;;;;2.88;1.95;;;;;;;30.96;30.89;100320.72;5127019;28;20049;-68
2022/06/24 09:08:05;;;;;;;1.90;1.50;;;;;;;31.25;30.23;100321.53;5127136;28;20024;-68
2022/06/24 09:10:31;;;;;;;1.73;1.40;;;;;;;31.44;29.54;100303.69;5126740;28;20529;-69
2022/06/24 09:12:57;;;;;;;3.08;1.58;;;;;;;31.87;29.34;100310.06;5126819;28;20019;-68
2022/06/24 09:15:23;;;;;;;2.38;1.80;;;;;;;32.39;29.03;100310.28;5126820;28;20033;-68
2022/06/24 09:17:49;;;;;;;2.42;1.40;;;;;;;32.90;27.70;100306.84;5126663;28;20020;-68
2022/06/24 09:20:18;;;;;;;2.22;1.60;;;;;;;32.75;26.58;100303.97;5126852;28;20024;-67
2022/06/24 09:22:44;;;;;;;2.75;1.77;;;;;;;31.91;27.65;100300.72;5126766;28;20071;-67
2022/06/24 09:25:10;;;;;;;2.42;1.60;;;;;;;31.35;28.48;100300.88;5126945;28;20027;-67
2022/06/24 09:27:44;;;;;;;1.92;1.50;;;;;;;30.75;29.52;100294.16;5126790;28;20030;-67
2022/06/24 09:30:15;;;;;;;3.05;1.70;;;;;;;30.51;29.87;100292.88;5126537;28;20020;-67
2022/06/24 09:32:55;;;;;;;2.20;1.60;;;;;;;30.22;29.51;100285.75;5126170;28;20016;-67
2022/06/24 09:35:24;;;;;;;2.35;1.80;;;;;;;29.63;31.11;100284.00;5108202;28;20036;-67
2022/06/24 09:37:51;;;;;;;3.15;1.67;;;;;;;29.70;32.07;100287.78;5126617;28;20331;-67
2022/06/24 09:40:28;;;;;;;2.03;1.50;;;;;;;30.09;31.17;100275.34;5126492;28;20113;-68
2022/06/24 09:43:06;;;;;;;3.47;1.52;;;;;;;29.93;31.31;100285.66;5126255;28;20054;-67
2022/06/24 09:45:52;;;;;;;2.00;1.77;;;;;;;29.44;32.16;100273.09;5126512;28;20031;-67
2022/06/24 09:48:34;;;;;;;2.25;1.65;;;;;;;29.44;32.58;100280.31;5125969;28;20270;-67
2022/06/24 09:51:07;;;;;;;3.60;1.83;;;;;;;29.92;32.12;100270.56;5126076;28;20039;-68
2022/06/24 09:53:37;;;;;;;2.40;1.80;;;;;;;30.76;31.37;100263.69;5126216;28;20022;-67
2022/06/24 09:56:07;;;;;;;1.98;1.75;;;;;;;31.07;30.57;100250.00;5126292;28;20028;-67
2022/06/24 09:58:34;;;;;;;3.28;1.67;;;;;;;30.84;30.69;100252.25;5126192;28;20099;-68
2022/06/24 10:01:00;;;;;;;2.65;1.88;;;;;;;30.61;31.10;100255.31;5125834;28;20613;-68
2022/06/24 10:03:27;;;;;;;2.25;1.77;;;;;;;30.99;30.59;100258.78;5125992;28;20051;-68
2022/06/24 10:05:59;;;;;;;2.15;1.60;;;;;;;31.01;30.62;100253.28;5125951;28;20061;-68
2022/06/24 10:08:27;;;;;;;5.70;2.17;;;;;;;30.58;30.81;100244.91;5125881;28;20055;-67
2022/06/24 10:10:59;;;;;;;2.20;1.70;;;;;;;30.22;31.47;100241.09;5125874;28;20045;-67
2022/06/24 10:13:34;;;;;;;2.10;1.70;;;;;;;30.34;31.28;100238.25;5125870;28;20099;-67
2022/06/24 10:16:05;;;;;;;2.55;1.80;;;;;;;30.20;31.59;100236.88;5125532;28;20039;-68
2022/06/24 10:18:37;;;;;;;3.08;1.75;;;;;;;29.95;30.98;100229.31;5125803;28;20016;-68
2022/06/24 10:21:07;;;;;;;4.90;1.73;;;;;;;29.44;32.12;100211.63;5125624;28;20539;-68
2022/06/24 10:23:37;;;;;;;2.10;1.90;;;;;;;29.37;31.87;100218.53;5125696;28;20049;-68
2022/06/24 10:26:16;;;;;;;2.13;1.83;;;;;;;29.53;32.47;100236.66;5125694;28;20027;-68
2022/06/24 10:28:59;;;;;;;2.00;1.80;;;;;;;29.75;31.55;100226.69;5125496;28;20375;-67
2022/06/24 10:31:49;;;;;;;1.52;1.42;;;;;;;29.38;32.18;100224.72;5124923;28;20039;-68
2022/06/24 10:34:29;;;;;;;2.65;1.60;;;;;;;29.17;32.27;100223.03;5125090;28;20030;-66
2022/06/24 10:37:02;;;;;;;1.80;1.55;;;;;;;28.99;33.10;100212.16;5125320;28;20019;-67
2022/06/24 10:39:30;;;;;;;3.33;1.92;;;;;;;28.96;33.61;100205.28;5125030;28;20486;-65
2022/06/24 10:42:03;;;;;;;2.25;1.83;;;;;;;29.12;33.15;100223.44;5125313;28;20023;-66
2022/06/24 10:44:31;;;;;;;2.05;1.30;;;;;;;29.36;32.55;100211.50;5124652;28;20024;-66
2022/06/24 10:47:08;;;;;;;1.80;1.50;;;;;;;29.59;31.87;100205.88;5124890;28;20042;-68
2022/06/24 10:49:52;;;;;;;3.47;1.40;;;;;;;29.35;31.44;100231.19;5125201;28;20032;-67
2022/06/24 10:52:33;;;;;;;2.03;1.40;;;;;;;29.04;32.06;100209.94;5124983;28;20092;-67
2022/06/24 10:57:47;;;;;;;2.00;1.52;;;;;;;29.49;31.46;100210.38;5124867;28;20038;-67
2022/06/24 11:00:26;;;;;;;3.58;1.40;;;;;;;29.12;31.78;100214.56;5124792;28;20025;-67
2022/06/24 11:03:03;;;;;;;2.13;1.35;;;;;;;28.48;32.52;100201.47;5124618;28;20521;-67
2022/06/24 11:05:37;;;;;;;6.93;1.60;;;;;;;28.04;33.30;100223.84;5124577;28;20031;-67
2022/06/24 11:08:09;;;;;;;2.45;1.52;;;;;;;27.62;33.98;100214.03;5124916;28;20023;-67
2022/06/24 11:10:34;;;;;;;2.63;1.50;;;;;;;27.30;34.59;100221.91;5124589;28;20032;-67
2022/06/24 11:13:01;;;;;;;3.42;1.67;;;;;;;27.01;35.19;100205.66;5124428;28;20046;-67
2022/06/24 11:15:34;;;;;;;1.95;1.65;;;;;;;26.80;35.96;100203.75;5124420;28;20051;-67
2022/06/24 11:18:08;;;;;;;3.45;1.80;;;;;;;26.55;36.97;100190.59;5124359;28;20479;-67
2022/06/24 11:20:42;;;;;;;3.05;1.70;;;;;;;26.50;37.25;100191.94;5124263;28;20106;-67
2022/06/24 11:23:12;;;;;;;2.03;1.67;;;;;;;26.44;37.00;100178.13;5124226;28;20133;-67
2022/06/24 11:25:51;;;;;;;2.38;1.88;;;;;;;26.41;37.59;100172.19;5124391;28;20047;-68
2022/06/24 11:28:25;;;;;;;1.98;1.60;;;;;;;26.31;37.37;100164.97;5124383;28;20027;-67
2022/06/24 11:30:54;;;;;;;1.90;1.42;;;;;;;26.23;37.22;100162.06;5123862;28;20111;-67
2022/06/24 11:33:20;;;;;;;2.78;1.63;;;;;;;26.16;36.90;100164.34;5124413;28;20098;-67
2022/06/24 11:35:49;;;;;;;2.03;1.60;;;;;;;26.10;37.56;100162.16;5124034;28;20027;-68
2022/06/24 11:38:16;;;;;;;1.88;1.50;;;;;;;26.16;37.20;100148.38;5124164;28;20015;-68